PWSweather.com
Personal Weather Stations
Station Observations
NANKRWX
Nanaimo, BC V9R 6W6

Nanaimo, BC V9R 6W6

Lat: 49.168, Lon: -124.036

Elevation: 637

Station Type: Davis Vantage Pro 2

http://weathercat.ca

Latest ConditionsUpdated 5:50:08 PM PST Saturday, Feb 23, 2019
Currently Today's Max Today's Min Today's Average
Temperature 35.3°F1.8°C 39.8°F4.3°C 28.7°F-1.8°C 32.2°F0.1°C
Dew Point 32.7°F0.4°C 33.9°F1.1°C 26.4°F-3.1°C 29.6°F-1.3°C
Winds Calm Calm 3.0 mph -4.8 kmh - - 0.1 mph 0.2 kmh
Wind Gusts -- 7.0 mph11.3 kmh - -
Humidity 90% 91% 78% 90%
Pressure 30.05 in1017.6 mb 30.06 in1017.9 mb 29.97 in1014.9 mb -
Hour Temp Dew Point Humidity Winds Wind Gusts Pressure Precip Precip Rate Daily Precip Total
05:50 PM 35.3°F1.8°C 32.7°F0.4°C 90% Calm Calm -- 30.05 in1017.6 mb 0.00 in0.0 mm 0.00 in0.0 mm 0.13 in3.3 mm
05:40 PM 35.7°F2.1°C 33.1°F0.6°C 90% Calm Calm 1.0 mph1.6 kmh 30.05 in1017.6 mb 0.00 in0.0 mm 0.00 in0.0 mm 0.13 in3.3 mm
05:30 PM 35.9°F2.2°C 33.3°F0.7°C 90% Calm Calm 1.0 mph1.6 kmh 30.06 in1017.9 mb 0.00 in0.0 mm 0.00 in0.0 mm 0.13 in3.3 mm
05:20 PM 36.2°F2.3°C 33.8°F1.0°C 91% Calm Calm 2.0 mph3.2 kmh 30.05 in1017.6 mb 0.00 in0.0 mm 0.00 in0.0 mm 0.13 in3.3 mm
05:10 PM 36.1°F2.3°C 33.7°F0.9°C 91% Calm Calm 2.0 mph3.2 kmh 30.05 in1017.6 mb 0.00 in0.0 mm 0.00 in0.0 mm 0.13 in3.3 mm
05:00 PM 36.2°F2.3°C 33.8°F1.0°C 91% Calm Calm 2.0 mph3.2 kmh 30.05 in1017.6 mb 0.00 in0.0 mm 0.00 in0.0 mm 0.13 in3.3 mm
04:50 PM 36.1°F2.3°C 33.7°F0.9°C 91% Calm Calm 1.0 mph1.6 kmh 30.06 in1017.9 mb 0.03 in0.8 mm 0.00 in0.0 mm 0.13 in3.3 mm
04:40 PM 35.6°F2.0°C 33.2°F0.7°C 91% Calm Calm 2.0 mph3.2 kmh 30.06 in1017.9 mb 0.06 in1.5 mm 0.00 in0.0 mm 0.13 in3.3 mm
04:30 PM 35.5°F1.9°C 32.9°F0.5°C 90% Calm Calm 2.0 mph3.2 kmh 30.06 in1017.9 mb 0.08 in2.0 mm 0.48 in12.2 mm 0.13 in3.3 mm
04:20 PM 35.9°F2.2°C 33.3°F0.7°C 90% Calm Calm 2.0 mph3.2 kmh 30.06 in1017.9 mb 0.00 in0.0 mm 0.00 in0.0 mm 0.05 in1.3 mm
04:10 PM 36.5°F2.5°C 33.9°F1.1°C 90% Calm Calm 2.0 mph3.2 kmh 30.05 in1017.6 mb 0.00 in0.0 mm 0.00 in0.0 mm 0.05 in1.3 mm
04:00 PM 36.5°F2.5°C 33.9°F1.1°C 90% Calm Calm 1.0 mph1.6 kmh 30.06 in1017.9 mb 0.00 in0.0 mm 0.00 in0.0 mm 0.05 in1.3 mm
03:50 PM 36.1°F2.3°C 33.7°F0.9°C 91% Calm Calm 3.0 mph4.8 kmh 30.05 in1017.6 mb 0.04 in1.0 mm 0.00 in0.0 mm 0.05 in1.3 mm
03:40 PM 35.7°F2.1°C 33.1°F0.6°C 90% Calm Calm 1.0 mph1.6 kmh 30.06 in1017.9 mb 0.05 in1.3 mm 0.30 in7.6 mm 0.05 in1.3 mm
03:30 PM 36.1°F2.3°C 33.5°F0.8°C 90% Calm Calm 7.0 mph11.3 kmh 30.06 in1017.9 mb 0.00 in0.0 mm 0.00 in0.0 mm 0.00 in0.0 mm
03:20 PM 36.3°F2.4°C 33.7°F0.9°C 90% Calm Calm -- 30.05 in1017.6 mb 0.00 in0.0 mm 0.00 in0.0 mm 0.00 in0.0 mm
03:10 PM 36.3°F2.4°C 33.7°F0.9°C 90% Calm Calm -- 30.06 in1017.9 mb 0.00 in0.0 mm 0.00 in0.0 mm 0.00 in0.0 mm
03:00 PM 36.4°F2.4°C 33.5°F0.8°C 89% Calm Calm 1.0 mph1.6 kmh 30.06 in1017.9 mb 0.00 in0.0 mm 0.00 in0.0 mm 0.00 in0.0 mm
02:50 PM 36.7°F2.6°C 33.8°F1.0°C 89% Calm Calm 3.0 mph4.8 kmh 30.06 in1017.9 mb 0.00 in0.0 mm 0.00 in0.0 mm 0.00 in0.0 mm
02:40 PM 36.9°F2.7°C 33.7°F0.9°C 88% Calm Calm 2.0 mph3.2 kmh 30.05 in1017.6 mb 0.00 in0.0 mm 0.00 in0.0 mm 0.00 in0.0 mm
02:30 PM 37.4°F3.0°C 33.6°F0.9°C 86% Calm Calm 1.0 mph1.6 kmh 30.05 in1017.6 mb 0.00 in0.0 mm 0.00 in0.0 mm 0.00 in0.0 mm
02:20 PM 37.8°F3.2°C 33.7°F0.9°C 85% Calm Calm -- 30.05 in1017.6 mb 0.00 in0.0 mm 0.00 in0.0 mm 0.00 in0.0 mm
02:10 PM 38.1°F3.4°C 33.7°F0.9°C 84% Calm Calm -- 30.06 in1017.9 mb 0.00 in0.0 mm 0.00 in0.0 mm 0.00 in0.0 mm
02:00 PM 38.6°F3.7°C 33.9°F1.1°C 83% Calm Calm 2.0 mph3.2 kmh 30.05 in1017.6 mb 0.00 in0.0 mm 0.00 in0.0 mm 0.00 in0.0 mm
01:50 PM 39.6°F4.2°C 33.6°F0.9°C 79% Calm Calm 2.0 mph3.2 kmh 30.06 in1017.9 mb 0.00 in0.0 mm 0.00 in0.0 mm 0.00 in0.0 mm
01:40 PM 39.8°F4.3°C 33.5°F0.8°C 78% 2.0 mph S3.2 kmh S 4.0 mph6.4 kmh 30.06 in1017.9 mb 0.00 in0.0 mm 0.00 in0.0 mm 0.00 in0.0 mm
08:30 AM 33.9°F1.1°C 31.6°F-0.2°C 91% Calm Calm 1.0 mph1.6 kmh 30.04 in1017.3 mb 0.00 in0.0 mm 0.00 in0.0 mm 0.00 in0.0 mm
08:20 AM 33.2°F0.7°C 30.9°F-0.6°C 91% Calm Calm -- 30.04 in1017.3 mb 0.00 in0.0 mm 0.00 in0.0 mm 0.00 in0.0 mm
08:10 AM 32.2°F0.1°C 29.9°F-1.2°C 91% Calm Calm 1.0 mph1.6 kmh 30.04 in1017.3 mb 0.00 in0.0 mm 0.00 in0.0 mm 0.00 in0.0 mm
08:00 AM 31.6°F-0.2°C 29.3°F-1.5°C 91% Calm Calm -- 30.04 in1017.3 mb 0.00 in0.0 mm 0.00 in0.0 mm 0.00 in0.0 mm
07:50 AM 31.4°F-0.3°C 29.1°F-1.6°C 91% Calm Calm -- 30.03 in1016.9 mb 0.00 in0.0 mm 0.00 in0.0 mm 0.00 in0.0 mm
07:40 AM 31.5°F-0.3°C 29.2°F-1.6°C 91% Calm Calm -- 30.03 in1016.9 mb 0.00 in0.0 mm 0.00 in0.0 mm 0.00 in0.0 mm
07:30 AM 31.3°F-0.4°C 29.0°F-1.7°C 91% Calm Calm -- 30.03 in1016.9 mb 0.00 in0.0 mm 0.00 in0.0 mm 0.00 in0.0 mm
07:20 AM 31.1°F-0.5°C 28.8°F-1.8°C 91% Calm Calm -- 30.03 in1016.9 mb 0.00 in0.0 mm 0.00 in0.0 mm 0.00 in0.0 mm
07:10 AM 30.9°F-0.6°C 28.6°F-1.9°C 91% Calm Calm -- 30.03 in1016.9 mb 0.00 in0.0 mm 0.00 in0.0 mm 0.00 in0.0 mm
07:00 AM 30.7°F-0.7°C 28.4°F-2.0°C 91% Calm Calm -- 30.03 in1016.9 mb 0.00 in0.0 mm 0.00 in0.0 mm 0.00 in0.0 mm
06:50 AM 30.3°F-0.9°C 28.0°F-2.2°C 91% Calm Calm -- 30.02 in1016.6 mb 0.00 in0.0 mm 0.00 in0.0 mm 0.00 in0.0 mm
06:40 AM 30.1°F-1.1°C 27.8°F-2.3°C 91% Calm Calm -- 30.02 in1016.6 mb 0.00 in0.0 mm 0.00 in0.0 mm 0.00 in0.0 mm
06:30 AM 29.9°F-1.2°C 27.6°F-2.4°C 91% Calm Calm 2.0 mph3.2 kmh 30.02 in1016.6 mb 0.00 in0.0 mm 0.00 in0.0 mm 0.00 in0.0 mm
06:20 AM 29.8°F-1.2°C 27.5°F-2.5°C 91% Calm Calm -- 30.02 in1016.6 mb 0.00 in0.0 mm 0.00 in0.0 mm 0.00 in0.0 mm
06:10 AM 29.8°F-1.2°C 27.5°F-2.5°C 91% Calm Calm -- 30.02 in1016.6 mb 0.00 in0.0 mm 0.00 in0.0 mm 0.00 in0.0 mm
06:00 AM 29.6°F-1.3°C 27.3°F-2.6°C 91% Calm Calm -- 30.02 in1016.6 mb 0.00 in0.0 mm 0.00 in0.0 mm 0.00 in0.0 mm
05:50 AM 29.4°F-1.4°C 27.1°F-2.7°C 91% Calm Calm -- 30.01 in1016.3 mb 0.00 in0.0 mm 0.00 in0.0 mm 0.00 in0.0 mm
05:40 AM 29.4°F-1.4°C 27.1°F-2.7°C 91% Calm Calm -- 30.01 in1016.3 mb 0.00 in0.0 mm 0.00 in0.0 mm 0.00 in0.0 mm
05:30 AM 29.5°F-1.4°C 27.2°F-2.7°C 91% Calm Calm -- 30.01 in1016.3 mb 0.00 in0.0 mm 0.00 in0.0 mm 0.00 in0.0 mm
05:20 AM 29.5°F-1.4°C 27.2°F-2.7°C 91% Calm Calm -- 30.01 in1016.3 mb 0.00 in0.0 mm 0.00 in0.0 mm 0.00 in0.0 mm
05:10 AM 29.5°F-1.4°C 27.2°F-2.7°C 91% Calm Calm -- 30.01 in1016.3 mb 0.00 in0.0 mm 0.00 in0.0 mm 0.00 in0.0 mm
05:00 AM 29.4°F-1.4°C 27.1°F-2.7°C 91% Calm Calm -- 30.01 in1016.3 mb 0.00 in0.0 mm 0.00 in0.0 mm 0.00 in0.0 mm
04:50 AM 29.3°F-1.5°C 27.0°F-2.8°C 91% Calm Calm -- 30.00 in1015.9 mb 0.00 in0.0 mm 0.00 in0.0 mm 0.00 in0.0 mm
04:40 AM 29.6°F-1.3°C 27.3°F-2.6°C 91% Calm Calm 1.0 mph1.6 kmh 30.00 in1015.9 mb 0.00 in0.0 mm 0.00 in0.0 mm 0.00 in0.0 mm
04:30 AM 29.8°F-1.2°C 27.5°F-2.5°C 91% Calm Calm -- 30.00 in1015.9 mb 0.00 in0.0 mm 0.00 in0.0 mm 0.00 in0.0 mm
04:20 AM 30.0°F-1.1°C 27.7°F-2.4°C 91% Calm Calm 1.0 mph1.6 kmh 30.00 in1015.9 mb 0.00 in0.0 mm 0.00 in0.0 mm 0.00 in0.0 mm
04:10 AM 29.8°F-1.2°C 27.5°F-2.5°C 91% Calm Calm -- 30.00 in1015.9 mb 0.00 in0.0 mm 0.00 in0.0 mm 0.00 in0.0 mm
04:00 AM 29.9°F-1.2°C 27.6°F-2.4°C 91% Calm Calm -- 30.00 in1015.9 mb 0.00 in0.0 mm 0.00 in0.0 mm 0.00 in0.0 mm
03:50 AM 29.9°F-1.2°C 27.6°F-2.4°C 91% Calm Calm 1.0 mph1.6 kmh 30.00 in1015.9 mb 0.00 in0.0 mm 0.00 in0.0 mm 0.00 in0.0 mm
03:40 AM 29.8°F-1.2°C 27.5°F-2.5°C 91% Calm Calm 2.0 mph3.2 kmh 30.00 in1015.9 mb 0.00 in0.0 mm 0.00 in0.0 mm 0.00 in0.0 mm
03:30 AM 29.9°F-1.2°C 27.6°F-2.4°C 91% Calm Calm -- 30.00 in1015.9 mb 0.00 in0.0 mm 0.00 in0.0 mm 0.00 in0.0 mm
03:20 AM 29.9°F-1.2°C 27.6°F-2.4°C 91% Calm Calm -- 30.00 in1015.9 mb 0.00 in0.0 mm 0.00 in0.0 mm 0.00 in0.0 mm
03:10 AM 29.8°F-1.2°C 27.5°F-2.5°C 91% Calm Calm -- 29.99 in1015.6 mb 0.00 in0.0 mm 0.00 in0.0 mm 0.00 in0.0 mm
03:00 AM 29.4°F-1.4°C 27.1°F-2.7°C 91% Calm Calm -- 30.00 in1015.9 mb 0.00 in0.0 mm 0.00 in0.0 mm 0.00 in0.0 mm
02:50 AM 29.0°F-1.7°C 26.7°F-2.9°C 91% Calm Calm 1.0 mph1.6 kmh 30.00 in1015.9 mb 0.00 in0.0 mm 0.00 in0.0 mm 0.00 in0.0 mm
02:40 AM 28.7°F-1.8°C 26.4°F-3.1°C 91% 3.0 mph WSW4.8 kmh WSW 5.0 mph8.0 kmh 29.99 in1015.6 mb 0.00 in0.0 mm 0.00 in0.0 mm 0.00 in0.0 mm
02:30 AM 29.0°F-1.7°C 26.7°F-2.9°C 91% Calm Calm 2.0 mph3.2 kmh 29.99 in1015.6 mb 0.00 in0.0 mm 0.00 in0.0 mm 0.00 in0.0 mm
02:20 AM 29.3°F-1.5°C 27.0°F-2.8°C 91% Calm Calm 2.0 mph3.2 kmh 29.99 in1015.6 mb 0.00 in0.0 mm 0.00 in0.0 mm 0.00 in0.0 mm
02:10 AM 29.1°F-1.6°C 26.8°F-2.9°C 91% Calm Calm -- 29.99 in1015.6 mb 0.00 in0.0 mm 0.00 in0.0 mm 0.00 in0.0 mm
02:00 AM 28.9°F-1.7°C 26.6°F-3.0°C 91% Calm Calm -- 29.99 in1015.6 mb 0.00 in0.0 mm 0.00 in0.0 mm 0.00 in0.0 mm
01:50 AM 29.1°F-1.6°C 26.8°F-2.9°C 91% Calm Calm -- 29.99 in1015.6 mb 0.00 in0.0 mm 0.00 in0.0 mm 0.00 in0.0 mm
01:40 AM 29.2°F-1.6°C 26.9°F-2.8°C 91% Calm Calm -- 29.99 in1015.6 mb 0.00 in0.0 mm 0.00 in0.0 mm 0.00 in0.0 mm
01:30 AM 29.3°F-1.5°C 27.0°F-2.8°C 91% Calm Calm -- 29.99 in1015.6 mb 0.00 in0.0 mm 0.00 in0.0 mm 0.00 in0.0 mm
01:20 AM 29.4°F-1.4°C 27.1°F-2.7°C 91% Calm Calm -- 29.99 in1015.6 mb 0.00 in0.0 mm 0.00 in0.0 mm 0.00 in0.0 mm
01:10 AM 29.4°F-1.4°C 27.1°F-2.7°C 91% Calm Calm -- 29.98 in1015.2 mb 0.00 in0.0 mm 0.00 in0.0 mm 0.00 in0.0 mm
01:00 AM 29.5°F-1.4°C 27.2°F-2.7°C 91% Calm Calm -- 29.98 in1015.2 mb 0.00 in0.0 mm 0.00 in0.0 mm 0.00 in0.0 mm
12:50 AM 29.6°F-1.3°C 27.3°F-2.6°C 91% Calm Calm -- 29.98 in1015.2 mb 0.00 in0.0 mm 0.00 in0.0 mm 0.00 in0.0 mm
12:40 AM 29.8°F-1.2°C 27.5°F-2.5°C 91% Calm Calm -- 29.98 in1015.2 mb 0.00 in0.0 mm 0.00 in0.0 mm 0.00 in0.0 mm
12:30 AM 30.0°F-1.1°C 27.7°F-2.4°C 91% Calm Calm -- 29.98 in1015.2 mb 0.00 in0.0 mm 0.00 in0.0 mm 0.00 in0.0 mm
12:20 AM 30.0°F-1.1°C 27.7°F-2.4°C 91% Calm Calm -- 29.98 in1015.2 mb 0.00 in0.0 mm 0.00 in0.0 mm 0.00 in0.0 mm
12:10 AM 30.0°F-1.1°C 27.7°F-2.4°C 91% Calm Calm -- 29.98 in1015.2 mb 0.00 in0.0 mm 0.00 in0.0 mm 0.00 in0.0 mm
12:00 AM 29.8°F-1.2°C 27.5°F-2.5°C 91% Calm Calm 1.0 mph1.6 kmh 29.97 in1014.9 mb 0.00 in0.0 mm 0.00 in0.0 mm 0.00 in0.0 mm